createdAt,value
2023-01-26T00:00:10.507Z,96323.88
2023-01-26T00:02:39.615Z,96271.81
2023-01-26T00:05:08.558Z,96304.53
2023-01-26T00:07:36.886Z,96284.38
2023-01-26T00:10:05.305Z,96211.41
2023-01-26T00:12:33.490Z,96162.94
2023-01-26T00:15:02.831Z,96211.06
2023-01-26T00:17:31.223Z,96297.16
2023-01-26T00:20:00.216Z,96288.41
2023-01-26T00:22:29.033Z,96294.59
2023-01-26T00:25:02.624Z,96295.78
2023-01-26T00:27:33.926Z,96285.81
2023-01-26T00:30:05.201Z,96269.25
2023-01-26T00:32:35.754Z,96285.41
2023-01-26T00:35:04.038Z,96253.69
2023-01-26T00:37:32.562Z,96253.09
2023-01-26T00:40:00.854Z,96188.34
2023-01-26T00:42:28.879Z,96285.22
2023-01-26T00:44:58.695Z,96278.03
2023-01-26T00:47:28.307Z,96178.97
2023-01-26T00:50:02.607Z,96238.56
2023-01-26T00:52:30.913Z,96273.44
2023-01-26T00:54:59.552Z,96178.16
2023-01-26T00:57:28.099Z,96185.16
2023-01-26T00:59:56.211Z,96271.66
2023-01-26T01:02:27.689Z,96259.50
2023-01-26T01:04:56.525Z,96264.06
2023-01-26T01:07:24.907Z,96266.25
2023-01-26T01:09:52.998Z,96258.91
2023-01-26T01:12:21.030Z,96242.75
2023-01-26T01:14:51.979Z,96274.84
2023-01-26T01:17:20.099Z,96259.72
2023-01-26T01:19:49.924Z,96224.63
2023-01-26T01:22:18.377Z,96260.50
2023-01-26T01:24:46.697Z,96259.50
2023-01-26T01:27:14.753Z,96266.47
2023-01-26T01:29:42.789Z,96266.06
2023-01-26T01:32:10.818Z,96098.81
2023-01-26T01:34:39.276Z,96261.09
2023-01-26T01:37:11.089Z,96260.31
2023-01-26T01:39:45.093Z,96255.50
2023-01-26T01:42:15.402Z,96268.84
2023-01-26T01:44:44.897Z,96260.28
2023-01-26T01:47:27.806Z,96262.47
2023-01-26T01:49:59.328Z,96264.88
2023-01-26T01:52:32.294Z,96265.47
2023-01-26T01:55:07.476Z,96148.66
2023-01-26T01:57:45.832Z,96132.72
2023-01-26T02:00:20.550Z,96258.69
2023-01-26T02:03:08.233Z,96258.69
2023-01-26T02:05:41.716Z,96201.06
2023-01-26T02:08:14.587Z,96254.69
2023-01-26T02:10:44.642Z,96252.50
2023-01-26T02:13:13.175Z,96222.41
2023-01-26T02:15:44.472Z,96249.31
2023-01-26T02:18:12.838Z,96241.16
2023-01-26T02:20:46.243Z,96237.56
2023-01-26T02:23:27.543Z,96236.16
2023-01-26T02:26:06.600Z,96234.75
2023-01-26T02:28:34.952Z,96225.81
2023-01-26T02:31:04.444Z,96221.44
2023-01-26T02:33:46.382Z,96224.63
2023-01-26T02:36:20.721Z,96211.06
2023-01-26T02:39:00.869Z,96219.63
2023-01-26T02:41:42.503Z,96210.47
2023-01-26T02:44:12.708Z,96203.09
2023-01-26T02:46:40.499Z,96197.91
2023-01-26T02:49:26.949Z,96199.31
2023-01-26T02:51:57.680Z,96173.22
2023-01-26T02:54:42.722Z,96189.13
2023-01-26T02:57:10.345Z,96187.94
2023-01-26T02:59:37.966Z,96166.22
2023-01-26T03:02:05.816Z,96185.94
2023-01-26T03:04:36.314Z,96175.00
2023-01-26T03:07:04.221Z,96061.69
2023-01-26T03:09:31.878Z,96173.41
2023-01-26T03:12:00.723Z,96172.81
2023-01-26T03:14:29.151Z,96157.47
2023-01-26T03:16:56.896Z,96170.00
2023-01-26T03:19:41.891Z,96166.81
2023-01-26T03:22:30.208Z,96162.06
2023-01-26T03:25:16.979Z,96151.69
2023-01-26T03:27:47.859Z,96164.66
2023-01-26T03:30:18.529Z,96166.25
2023-01-26T03:32:47.941Z,96163.66
2023-01-26T03:35:22.682Z,96076.22
2023-01-26T03:37:54.884Z,96169.41
2023-01-26T03:40:56.877Z,96037.00
2023-01-26T03:43:41.926Z,96163.66
2023-01-26T03:46:27.562Z,96164.25
2023-01-26T03:49:13.065Z,96167.22
2023-01-26T03:51:58.416Z,96169.81
2023-01-26T03:54:45.202Z,96156.28
2023-01-26T03:57:13.335Z,96156.09
2023-01-26T03:59:41.014Z,96160.06
2023-01-26T04:02:30.747Z,96133.56
2023-01-26T04:05:17.755Z,96161.28
2023-01-26T04:08:06.498Z,96164.84
2023-01-26T04:10:35.919Z,96154.09
2023-01-26T04:13:22.570Z,96141.34
2023-01-26T04:16:13.570Z,96155.69
2023-01-26T04:18:59.642Z,96075.44
2023-01-26T04:21:33.283Z,96145.72
2023-01-26T04:24:09.598Z,96146.09
2023-01-26T04:26:38.646Z,96138.94
2023-01-26T04:29:11.736Z,96074.84
2023-01-26T04:31:41.410Z,96136.16
2023-01-26T04:34:13.161Z,96062.88
2023-01-26T04:36:42.144Z,96121.81
2023-01-26T04:39:10.277Z,96134.97
2023-01-26T04:41:42.621Z,96142.94
2023-01-26T04:44:13.193Z,96134.97
2023-01-26T04:46:41.308Z,96136.97
2023-01-26T04:49:09.435Z,96140.16
2023-01-26T04:51:37.089Z,96135.75
2023-01-26T04:54:04.978Z,96112.28
2023-01-26T04:56:36.847Z,96031.63
2023-01-26T04:59:07.576Z,96138.94
2023-01-26T05:01:37.763Z,96093.56
2023-01-26T05:04:08.789Z,96092.34
2023-01-26T05:06:41.933Z,96020.50
2023-01-26T05:09:09.927Z,96149.69
2023-01-26T05:11:39.047Z,96143.75
2023-01-26T05:14:29.493Z,96149.09
2023-01-26T05:17:11.124Z,96142.53
2023-01-26T05:19:47.535Z,96150.28
2023-01-26T05:22:15.179Z,96152.09
2023-01-26T05:25:02.180Z,96118.03
2023-01-26T05:27:40.275Z,96145.34
2023-01-26T05:30:14.441Z,96129.38
2023-01-26T05:32:42.911Z,96146.53
2023-01-26T05:35:11.806Z,96141.53
2023-01-26T05:37:41.971Z,96145.13
2023-01-26T05:40:11.987Z,96009.34
2023-01-26T05:42:40.749Z,96119.63
2023-01-26T05:45:41.433Z,96141.53
2023-01-26T05:48:10.277Z,96142.53
2023-01-26T05:50:38.393Z,96142.16
2023-01-26T05:53:15.091Z,96119.84
2023-01-26T05:55:42.860Z,96142.16
2023-01-26T05:58:11.281Z,96134.97
2023-01-26T06:00:41.604Z,96146.13
2023-01-26T06:03:16.209Z,96144.75
2023-01-26T06:05:44.239Z,96148.50
2023-01-26T06:08:18.240Z,96152.69
2023-01-26T06:11:21.361Z,96101.91
2023-01-26T06:14:00.932Z,96155.88
2023-01-26T06:16:30.890Z,96117.84
2023-01-26T06:18:58.672Z,96079.22
2023-01-26T06:21:26.873Z,96102.09
2023-01-26T06:23:55.484Z,96131.78
2023-01-26T06:26:25.193Z,96143.34
2023-01-26T06:28:55.450Z,96139.94
2023-01-26T06:31:25.189Z,96140.94
2023-01-26T06:33:56.640Z,96112.88
2023-01-26T06:36:24.637Z,96144.53
2023-01-26T06:38:56.275Z,96141.75
2023-01-26T06:41:24.523Z,96149.28
2023-01-26T06:43:52.193Z,96152.69
2023-01-26T06:46:20.651Z,96138.56
2023-01-26T06:48:49.657Z,96142.75
2023-01-26T06:51:45.518Z,96150.50
2023-01-26T06:54:14.270Z,96141.53
2023-01-26T06:57:00.467Z,96135.38
2023-01-26T06:59:54.089Z,96142.53
2023-01-26T07:02:53.270Z,96141.53
2023-01-26T07:05:21.123Z,96141.94
2023-01-26T07:07:51.175Z,96032.63
2023-01-26T07:10:18.997Z,96120.44
2023-01-26T07:12:47.354Z,96108.50
2023-01-26T07:15:14.975Z,96142.31
2023-01-26T07:17:42.896Z,96139.75
2023-01-26T07:20:12.127Z,96139.34
2023-01-26T07:22:40.092Z,96136.97
2023-01-26T07:25:09.548Z,96140.94
2023-01-26T07:27:37.495Z,96109.28
2023-01-26T07:30:06.105Z,96133.38
2023-01-26T07:32:33.748Z,96133.97
2023-01-26T07:35:01.393Z,96140.16
2023-01-26T07:37:29.118Z,96136.75
2023-01-26T07:39:56.934Z,96133.97
2023-01-26T07:42:25.995Z,96129.78
2023-01-26T07:45:19.752Z,96075.63
2023-01-26T07:47:48.036Z,96132.56
2023-01-26T07:50:16.066Z,96094.94
2023-01-26T07:52:44.565Z,96132.16
2023-01-26T07:55:12.215Z,96144.09
2023-01-26T07:57:41.431Z,96101.09
2023-01-26T08:00:10.809Z,96110.69
2023-01-26T08:02:41.286Z,96121.81
2023-01-26T08:05:10.172Z,96118.44
2023-01-26T08:07:37.919Z,96090.38
2023-01-26T08:10:06.528Z,96005.38
2023-01-26T08:12:39.029Z,96118.63
2023-01-26T08:15:11.586Z,96119.44
2023-01-26T08:17:39.208Z,96124.63
2023-01-26T08:20:07.771Z,96115.44
2023-01-26T08:22:35.398Z,96093.97
2023-01-26T08:25:03.076Z,96012.13
2023-01-26T08:27:30.726Z,95931.16
2023-01-26T08:29:59.803Z,96094.91
2023-01-26T08:32:29.960Z,96106.25
2023-01-26T08:34:57.900Z,96094.91
2023-01-26T08:37:25.610Z,96092.13
2023-01-26T08:39:53.231Z,96095.91
2023-01-26T08:42:22.712Z,96074.84
2023-01-26T08:44:50.589Z,95978.50
2023-01-26T08:47:18.556Z,96106.47
2023-01-26T08:49:47.801Z,96043.38
2023-01-26T08:52:15.415Z,96103.69
2023-01-26T08:54:43.075Z,96105.06
2023-01-26T08:57:11.817Z,96088.94
2023-01-26T08:59:39.432Z,96101.88
2023-01-26T09:02:07.115Z,96091.72
2023-01-26T09:04:34.903Z,96100.28
2023-01-26T09:07:03.951Z,96099.50
2023-01-26T09:09:33.863Z,95936.75
2023-01-26T09:12:01.530Z,96097.88
2023-01-26T09:14:29.319Z,96100.06
2023-01-26T09:16:57.077Z,96003.16
2023-01-26T09:19:24.765Z,96050.13
2023-01-26T09:21:53.920Z,96106.63
2023-01-26T09:24:23.559Z,96099.88
2023-01-26T09:26:51.282Z,96098.72
2023-01-26T09:29:19.098Z,95894.78
2023-01-26T09:31:46.971Z,96094.91
2023-01-26T09:34:14.696Z,96116.41
2023-01-26T09:36:42.368Z,95987.06
2023-01-26T09:39:10.442Z,96113.81
2023-01-26T09:41:59.440Z,96109.25
2023-01-26T09:44:29.256Z,96115.78
2023-01-26T09:47:08.825Z,96119.38
2023-01-26T09:49:48.339Z,95990.03
2023-01-26T09:52:24.512Z,96054.47
2023-01-26T09:54:54.318Z,96118.97
2023-01-26T09:57:29.006Z,96024.69
2023-01-26T10:00:01.309Z,96103.63
2023-01-26T10:02:44.818Z,96124.75
2023-01-26T10:05:19.578Z,96107.44
2023-01-26T10:07:47.309Z,96112.81
2023-01-26T10:10:22.766Z,96086.50
2023-01-26T10:12:52.347Z,96102.22
2023-01-26T10:15:30.029Z,96087.09
2023-01-26T10:18:01.201Z,96000.97
2023-01-26T10:20:33.788Z,96096.66
2023-01-26T10:23:05.286Z,96097.44
2023-01-26T10:25:35.803Z,96091.47
2023-01-26T10:28:14.077Z,95995.59
2023-01-26T10:30:43.385Z,96092.88
2023-01-26T10:33:16.777Z,96054.84
2023-01-26T10:35:44.708Z,95996.19
2023-01-26T10:38:39.559Z,96091.06
2023-01-26T10:41:09.377Z,96105.44
2023-01-26T10:43:42.844Z,96063.81
2023-01-26T10:46:42.152Z,96005.53
2023-01-26T10:49:17.198Z,96073.53
2023-01-26T10:51:46.583Z,96075.16
2023-01-26T10:54:18.698Z,96076.91
2023-01-26T10:56:47.976Z,96059.59
2023-01-26T10:59:26.591Z,96080.50
2023-01-26T11:01:56.633Z,96082.53
2023-01-26T11:04:25.621Z,96082.53
2023-01-26T11:06:53.883Z,96074.53
2023-01-26T11:09:26.139Z,96050.44
2023-01-26T11:12:02.288Z,96069.88
2023-01-26T11:14:32.796Z,95963.72
2023-01-26T11:17:10.038Z,96039.66
2023-01-26T11:19:56.643Z,96070.75
2023-01-26T11:22:33.767Z,96055.97
2023-01-26T11:25:12.430Z,95901.91
2023-01-26T11:27:47.461Z,96073.91
2023-01-26T11:30:42.753Z,96061.19
2023-01-26T11:33:21.582Z,96058.81
2023-01-26T11:35:55.580Z,96079.06
2023-01-26T11:38:36.123Z,96071.53
2023-01-26T11:41:17.662Z,96063.56
2023-01-26T11:44:07.832Z,96081.25
2023-01-26T11:46:58.876Z,96067.28
2023-01-26T11:49:44.863Z,96064.69
2023-01-26T11:52:23.860Z,96075.50
2023-01-26T11:55:05.249Z,96063.69
2023-01-26T11:57:42.651Z,96062.09
2023-01-26T12:00:29.069Z,96048.00
2023-01-26T12:03:07.401Z,96058.56
2023-01-26T12:05:42.645Z,95992.56
2023-01-26T12:08:19.005Z,96051.13
2023-01-26T12:10:51.513Z,96042.03
2023-01-26T12:13:29.440Z,96045.16
2023-01-26T12:16:02.610Z,96041.03
2023-01-26T12:18:50.724Z,96043.13
2023-01-26T12:21:23.918Z,96025.84
2023-01-26T12:23:59.016Z,96038.78
2023-01-26T12:26:32.989Z,95968.22
2023-01-26T12:29:09.626Z,95993.06
2023-01-26T12:31:43.233Z,95999.63
2023-01-26T12:34:14.299Z,96030.44
2023-01-26T12:36:53.648Z,96047.59
2023-01-26T12:39:31.833Z,96009.34
2023-01-26T12:42:14.136Z,96027.63
2023-01-26T12:44:43.645Z,95961.25
2023-01-26T12:47:19.883Z,96006.19
2023-01-26T12:49:57.385Z,95965.84
2023-01-26T12:52:31.528Z,95995.00
2023-01-26T12:55:04.767Z,96028.06
2023-01-26T12:57:39.217Z,95999.81
2023-01-26T13:00:18.529Z,95959.31
2023-01-26T13:02:47.988Z,96011.19
2023-01-26T13:05:28.969Z,96011.00
2023-01-26T13:07:56.672Z,96025.88
2023-01-26T13:10:27.764Z,95933.63
2023-01-26T13:12:58.168Z,95888.72
2023-01-26T13:15:27.982Z,95998.22
2023-01-26T13:17:58.084Z,96014.72
2023-01-26T13:20:43.989Z,95968.97
2023-01-26T13:23:52.624Z,96018.13
2023-01-26T13:26:42.612Z,96007.38
2023-01-26T13:29:36.089Z,95962.25
2023-01-26T13:32:37.151Z,96005.94
2023-01-26T13:35:10.029Z,95895.31
2023-01-26T13:37:51.672Z,95998.25
2023-01-26T13:40:24.875Z,95890.13
2023-01-26T13:42:59.657Z,95896.03
2023-01-26T13:45:33.481Z,95992.47
2023-01-26T13:48:04.915Z,96010.50
2023-01-26T13:50:37.720Z,96009.66
2023-01-26T13:53:31.075Z,95997.38
2023-01-26T13:56:01.457Z,95902.41
2023-01-26T13:58:32.523Z,95911.84
2023-01-26T14:01:02.030Z,96002.22
2023-01-26T14:03:31.170Z,95988.19
2023-01-26T14:06:01.849Z,96017.56
2023-01-26T14:08:32.572Z,96009.81
2023-01-26T14:11:01.431Z,96010.19
2023-01-26T14:13:33.929Z,96007.38
2023-01-26T14:16:06.752Z,95931.69
2023-01-26T14:18:35.119Z,95973.66
2023-01-26T14:21:06.171Z,96026.16
2023-01-26T14:23:37.241Z,96007.78
2023-01-26T14:26:07.587Z,96011.06
2023-01-26T14:28:37.909Z,95982.41
2023-01-26T14:31:16.456Z,96020.56
2023-01-26T14:33:44.804Z,95890.38
2023-01-26T14:36:21.719Z,95920.19
2023-01-26T14:38:53.150Z,96007.22
2023-01-26T14:41:24.605Z,95947.22
2023-01-26T14:43:57.927Z,95991.72
2023-01-26T14:46:31.447Z,95988.94
2023-01-26T14:49:03.031Z,96013.22
2023-01-26T14:51:33.142Z,95920.19
2023-01-26T14:54:05.633Z,95905.06
2023-01-26T14:56:36.386Z,96020.59
2023-01-26T14:59:06.011Z,95901.28
2023-01-26T15:01:33.906Z,96011.81
2023-01-26T15:04:05.765Z,96005.06
2023-01-26T15:06:34.001Z,95968.06
2023-01-26T15:09:06.411Z,95984.91
2023-01-26T15:11:54.201Z,95997.41
2023-01-26T15:14:32.667Z,95826.94
2023-01-26T15:17:00.431Z,95964.66
2023-01-26T15:19:33.526Z,95947.81
2023-01-26T15:22:01.276Z,95910.44
2023-01-26T15:24:30.411Z,96003.63
2023-01-26T15:27:06.170Z,95909.59
2023-01-26T15:29:35.042Z,96001.84
2023-01-26T15:32:03.179Z,95871.69
2023-01-26T15:34:36.719Z,96028.53
2023-01-26T15:37:26.083Z,96019.81
2023-01-26T15:39:55.145Z,95895.72
2023-01-26T15:42:24.817Z,96025.38
2023-01-26T15:44:52.499Z,95976.06
2023-01-26T15:47:20.238Z,96026.00
2023-01-26T15:49:48.048Z,95968.09
2023-01-26T15:52:16.705Z,96033.34
2023-01-26T15:54:45.121Z,95999.13
2023-01-26T15:57:14.416Z,96026.59
2023-01-26T15:59:42.182Z,96030.53
2023-01-26T16:02:15.081Z,96030.34
2023-01-26T16:04:45.480Z,95855.22
2023-01-26T16:07:14.867Z,95942.69
2023-01-26T16:09:43.421Z,96032.53
2023-01-26T16:12:31.180Z,96035.94
2023-01-26T16:15:02.671Z,96034.13
2023-01-26T16:17:30.536Z,96032.94
2023-01-26T16:19:58.256Z,96027.38
2023-01-26T16:22:25.998Z,96055.28
2023-01-26T16:24:53.816Z,95998.47
2023-01-26T16:27:22.891Z,95942.84
2023-01-26T16:29:50.787Z,96029.75
2023-01-26T16:32:30.187Z,96029.16
2023-01-26T16:34:57.957Z,95873.09
2023-01-26T16:37:26.629Z,96034.91
2023-01-26T16:39:54.397Z,96037.13
2023-01-26T16:42:23.431Z,96026.19
2023-01-26T16:44:51.181Z,96031.41
2023-01-26T16:47:18.840Z,96022.78
2023-01-26T16:49:47.492Z,96007.28
2023-01-26T16:52:17.713Z,96025.97
2023-01-26T16:54:45.662Z,95919.63
2023-01-26T16:57:13.732Z,96007.69
2023-01-26T16:59:45.672Z,95829.97
2023-01-26T17:02:24.902Z,95895.72
2023-01-26T17:04:52.966Z,96039.50
2023-01-26T17:07:20.685Z,96031.34
2023-01-26T17:09:48.421Z,96038.91
2023-01-26T17:12:16.205Z,96012.03
2023-01-26T17:14:45.296Z,95904.69
2023-01-26T17:17:13.095Z,96027.19
2023-01-26T17:19:40.786Z,96032.16
2023-01-26T17:22:08.494Z,96021.84
2023-01-26T17:24:36.455Z,96035.97
2023-01-26T17:27:04.133Z,96057.03
2023-01-26T17:29:31.941Z,95972.50
2023-01-26T17:32:02.040Z,95897.56
2023-01-26T17:34:29.909Z,95974.25
2023-01-26T17:36:58.709Z,95883.25
2023-01-26T17:39:26.478Z,95945.09
2023-01-26T17:41:54.614Z,96031.38
2023-01-26T17:44:22.488Z,96045.69
2023-01-26T17:46:50.195Z,96047.31
2023-01-26T17:49:21.172Z,96043.34
2023-01-26T17:51:48.958Z,96040.91
2023-01-26T17:54:16.825Z,96041.88
2023-01-26T17:56:45.737Z,96037.50
2023-01-26T17:59:13.540Z,95968.91
2023-01-26T18:01:42.373Z,96036.97
2023-01-26T18:04:10.579Z,95957.00
2023-01-26T18:06:39.734Z,95968.53
2023-01-26T18:09:07.754Z,96034.97
2023-01-26T18:11:35.491Z,96028.56
2023-01-26T18:14:03.229Z,95991.59
2023-01-26T18:16:31.099Z,95999.97
2023-01-26T18:19:01.065Z,95969.72
2023-01-26T18:21:31.029Z,96040.13
2023-01-26T18:24:02.305Z,96033.38
2023-01-26T18:26:32.359Z,95932.94
2023-01-26T18:29:00.554Z,96005.91
2023-01-26T18:31:30.538Z,96043.31
2023-01-26T18:33:59.766Z,95904.91
2023-01-26T18:36:28.204Z,96017.66
2023-01-26T18:38:57.723Z,96020.22
2023-01-26T18:41:28.111Z,96033.53
2023-01-26T18:43:57.872Z,96013.66
2023-01-26T18:46:26.991Z,96039.31
2023-01-26T18:49:00.401Z,95955.81
2023-01-26T18:54:52.591Z,96033.13
2023-01-26T18:57:22.024Z,96021.22
2023-01-26T18:59:49.747Z,95884.66
2023-01-26T19:02:17.516Z,95990.78
2023-01-26T19:04:45.217Z,96037.56
2023-01-26T19:07:15.285Z,95906.50
2023-01-26T19:09:42.990Z,96027.78
2023-01-26T19:12:12.898Z,95915.44
2023-01-26T19:14:41.992Z,96054.25
2023-01-26T19:17:09.996Z,95897.75
2023-01-26T19:19:39.646Z,95984.06
2023-01-26T19:22:11.037Z,95976.09
2023-01-26T19:24:38.869Z,96017.88
2023-01-26T19:27:06.522Z,96039.31
2023-01-26T19:29:34.130Z,96035.56
2023-01-26T19:32:03.271Z,96039.31
2023-01-26T19:34:31.926Z,96036.13
2023-01-26T19:36:59.553Z,96031.16
2023-01-26T19:39:27.220Z,96032.97
2023-01-26T19:41:54.871Z,96028.94
2023-01-26T19:44:22.506Z,96035.31
2023-01-26T19:46:51.758Z,96014.47
2023-01-26T19:49:21.367Z,96029.78
2023-01-26T19:51:49.209Z,96022.81
2023-01-26T19:54:16.962Z,96034.53
2023-01-26T19:56:44.637Z,96034.97
2023-01-26T19:59:13.173Z,96033.00
2023-01-26T20:01:40.956Z,96037.75
2023-01-26T20:04:10.507Z,96021.84
2023-01-26T20:06:39.603Z,96034.78
2023-01-26T20:09:08.734Z,96032.56
2023-01-26T20:11:36.505Z,96034.56
2023-01-26T20:14:06.636Z,96037.75
2023-01-26T20:16:35.083Z,96032.56
2023-01-26T20:19:03.374Z,96043.13
2023-01-26T20:21:32.494Z,96009.09
2023-01-26T20:24:06.772Z,96025.97
2023-01-26T20:26:35.096Z,96022.16
2023-01-26T20:29:03.257Z,96029.16
2023-01-26T20:31:32.356Z,96028.16
2023-01-26T20:34:01.616Z,96033.34
2023-01-26T20:36:29.756Z,96022.22
2023-01-26T20:38:57.615Z,96025.19
2023-01-26T20:41:29.081Z,95973.91
2023-01-26T20:44:01.181Z,95993.75
2023-01-26T20:46:30.847Z,96016.97
2023-01-26T20:48:59.025Z,96018.84
2023-01-26T20:51:33.457Z,96020.41
2023-01-26T20:54:01.258Z,96017.84
2023-01-26T20:56:30.773Z,96016.84
2023-01-26T20:58:58.660Z,96005.09
2023-01-26T21:01:27.078Z,96015.59
2023-01-26T21:03:55.255Z,96010.25
2023-01-26T21:06:24.593Z,96007.84
2023-01-26T21:08:55.166Z,96010.22
2023-01-26T21:11:25.110Z,96012.84
2023-01-26T21:13:55.775Z,96011.81
2023-01-26T21:16:24.107Z,96000.47
2023-01-26T21:18:51.925Z,96003.63
2023-01-26T21:21:21.469Z,96013.81
2023-01-26T21:23:49.958Z,95991.56
2023-01-26T21:26:21.900Z,96004.28
2023-01-26T21:28:55.995Z,96006.88
2023-01-26T21:31:25.915Z,95997.94
2023-01-26T21:33:54.074Z,96016.63
2023-01-26T21:36:22.984Z,96006.06
2023-01-26T21:38:52.913Z,96006.47
2023-01-26T21:41:39.531Z,96006.84
2023-01-26T21:44:10.832Z,95997.47
2023-01-26T21:46:39.343Z,95996.69
2023-01-26T21:49:08.807Z,95981.63
2023-01-26T21:51:54.492Z,96002.69
2023-01-26T21:54:22.407Z,96009.09
2023-01-26T21:56:50.162Z,96009.44
2023-01-26T21:59:19.214Z,96004.69
2023-01-26T22:01:49.581Z,96003.09
2023-01-26T22:04:19.159Z,95950.00
2023-01-26T22:06:46.797Z,95992.72
2023-01-26T22:09:16.487Z,96006.69
2023-01-26T22:11:44.583Z,95999.75
2023-01-26T22:14:15.014Z,96005.69
2023-01-26T22:16:44.353Z,96002.31
2023-01-26T22:19:12.855Z,96005.47
2023-01-26T22:21:41.151Z,96003.06
2023-01-26T22:24:12.061Z,95982.75
2023-01-26T22:26:39.999Z,95976.03
2023-01-26T22:29:08.379Z,95990.75
2023-01-26T22:31:36.121Z,96000.75
2023-01-26T22:34:05.351Z,95988.78
2023-01-26T22:36:33.349Z,95989.38
2023-01-26T22:39:01.415Z,95995.75
2023-01-26T22:41:30.355Z,95997.75
2023-01-26T22:43:59.673Z,95993.16
2023-01-26T22:46:29.128Z,95993.47
2023-01-26T22:48:58.105Z,95989.06
2023-01-26T22:51:29.449Z,95993.09
2023-01-26T22:53:59.120Z,95985.94
2023-01-26T22:56:27.825Z,95986.94
2023-01-26T22:58:58.999Z,95978.59
2023-01-26T23:01:28.588Z,95984.56
2023-01-26T23:03:57.122Z,95983.97
2023-01-26T23:06:25.285Z,95980.38
2023-01-26T23:08:55.042Z,95959.53
2023-01-26T23:11:24.767Z,95980.00
2023-01-26T23:13:53.568Z,95965.88
2023-01-26T23:16:23.333Z,95972.44
2023-01-26T23:18:51.773Z,95973.81
2023-01-26T23:21:19.758Z,95972.81
2023-01-26T23:23:47.503Z,95974.41
2023-01-26T23:26:16.607Z,95967.53
2023-01-26T23:28:45.170Z,95971.97
2023-01-26T23:31:14.258Z,95983.34
2023-01-26T23:33:42.206Z,95973.38
2023-01-26T23:36:11.406Z,95979.56
2023-01-26T23:38:39.513Z,95966.66
2023-01-26T23:41:08.544Z,95968.41
2023-01-26T23:43:37.616Z,95933.19
2023-01-26T23:46:06.673Z,95954.88
2023-01-26T23:48:34.524Z,95957.66
2023-01-26T23:51:05.037Z,95960.44
2023-01-26T23:53:33.209Z,95952.66
2023-01-26T23:56:04.873Z,95956.47
2023-01-26T23:58:32.801Z,95928.25
